createdAt,value
2019-04-30T00:01:19.089Z,12.80
2019-04-30T00:03:50.512Z,12.90
2019-04-30T00:06:21.978Z,12.80
2019-04-30T00:08:51.308Z,12.80
2019-04-30T00:11:20.690Z,12.80
2019-04-30T00:13:50.210Z,12.80
2019-04-30T00:16:19.768Z,12.90
2019-04-30T00:18:58.250Z,13.00
2019-04-30T00:21:21.138Z,13.00
2019-04-30T00:23:50.502Z,13.00
2019-04-30T00:26:19.811Z,13.00
2019-04-30T00:28:49.102Z,12.90
2019-04-30T00:31:23.862Z,12.90
2019-04-30T00:33:52.820Z,12.90
2019-04-30T00:36:20.434Z,12.90
2019-04-30T00:38:49.732Z,12.90
2019-04-30T00:41:19.047Z,12.80
2019-04-30T00:43:50.796Z,12.80
2019-04-30T00:46:25.297Z,12.90
2019-04-30T00:48:50.388Z,13.00
2019-04-30T00:51:21.378Z,13.00
2019-04-30T00:53:52.558Z,13.00
2019-04-30T00:56:24.657Z,13.00
2019-04-30T00:58:57.454Z,13.00
2019-04-30T01:01:43.628Z,13.00
2019-04-30T01:04:28.101Z,13.00
2019-04-30T01:07:00.345Z,13.00
2019-04-30T01:09:29.060Z,12.90
2019-04-30T01:11:58.365Z,12.90
2019-04-30T01:14:31.839Z,12.90
2019-04-30T01:16:59.400Z,12.90
2019-04-30T01:19:32.294Z,12.90
2019-04-30T01:22:00.090Z,12.90
2019-04-30T01:24:31.583Z,12.90
2019-04-30T01:27:06.841Z,13.00
2019-04-30T01:29:40.768Z,13.00
2019-04-30T01:32:05.038Z,13.10
2019-04-30T01:34:34.339Z,13.00
2019-04-30T01:37:03.655Z,13.00
2019-04-30T01:39:32.956Z,13.00
2019-04-30T01:42:02.839Z,13.00
2019-04-30T01:44:33.450Z,13.00
2019-04-30T01:47:02.744Z,12.90
2019-04-30T01:49:41.727Z,12.90
2019-04-30T01:52:03.056Z,12.80
2019-04-30T01:54:32.375Z,12.80
2019-04-30T01:57:15.215Z,12.90
2019-04-30T01:59:55.298Z,13.00
2019-04-30T02:02:28.532Z,13.00
2019-04-30T02:04:59.107Z,13.00
2019-04-30T02:07:28.892Z,13.00
2019-04-30T02:09:58.786Z,13.00
2019-04-30T02:12:29.697Z,13.00
2019-04-30T02:14:59.711Z,13.10
2019-04-30T02:17:29.401Z,13.10
2019-04-30T02:19:59.707Z,13.10
2019-04-30T02:22:31.277Z,13.10
2019-04-30T02:25:00.009Z,13.00
2019-04-30T02:27:29.543Z,13.10
2019-04-30T02:29:59.481Z,13.10
2019-04-30T02:32:30.677Z,13.10
2019-04-30T02:35:09.621Z,13.10
2019-04-30T02:37:59.578Z,13.00
2019-04-30T02:40:30.800Z,13.00
2019-04-30T02:43:01.886Z,12.90
2019-04-30T02:45:33.084Z,13.00
2019-04-30T02:48:03.342Z,13.00
2019-04-30T02:50:35.523Z,13.10
2019-04-30T02:53:09.746Z,13.10
2019-04-30T02:55:43.997Z,13.20
2019-04-30T02:58:13.472Z,13.20
2019-04-30T03:00:42.855Z,13.10
2019-04-30T03:03:13.775Z,13.20
2019-04-30T03:05:43.159Z,13.20
2019-04-30T03:08:12.452Z,13.30
2019-04-30T03:10:41.740Z,13.10
2019-04-30T03:13:11.052Z,13.10
2019-04-30T03:15:40.358Z,13.10
2019-04-30T03:18:20.051Z,13.10
2019-04-30T03:21:01.789Z,13.10
2019-04-30T03:23:31.073Z,13.00
2019-04-30T03:26:00.400Z,12.90
2019-04-30T03:28:30.254Z,12.90
2019-04-30T03:31:04.444Z,12.80
2019-04-30T03:36:23.334Z,12.50
2019-04-30T03:38:53.143Z,12.70
2019-04-30T03:41:22.599Z,12.80
2019-04-30T03:43:51.935Z,12.70
2019-04-30T03:46:21.251Z,12.70
2019-04-30T03:48:50.574Z,12.90
2019-04-30T03:51:21.051Z,13.10
2019-04-30T03:53:50.365Z,13.20
2019-04-30T03:56:22.794Z,13.10
2019-04-30T03:58:51.005Z,13.00
2019-04-30T04:01:39.927Z,12.90
2019-04-30T04:04:27.161Z,12.90
2019-04-30T04:07:10.068Z,12.80
2019-04-30T04:09:56.402Z,12.80
2019-04-30T04:12:26.599Z,12.90
2019-04-30T04:14:55.974Z,12.90
2019-04-30T04:17:25.979Z,13.00
2019-04-30T04:19:55.282Z,13.00
2019-04-30T04:22:24.745Z,12.90
2019-04-30T04:24:54.077Z,12.90
2019-04-30T04:27:23.406Z,12.90
2019-04-30T04:29:52.721Z,12.90
2019-04-30T04:32:24.225Z,12.80
2019-04-30T04:34:53.934Z,12.70
2019-04-30T04:37:23.263Z,12.50
2019-04-30T04:39:52.567Z,12.60
2019-04-30T04:42:21.982Z,12.70
2019-04-30T04:44:51.259Z,12.70
2019-04-30T04:47:20.672Z,12.80
2019-04-30T04:49:53.005Z,12.90
2019-04-30T04:52:21.973Z,12.90
2019-04-30T04:54:51.664Z,12.90
2019-04-30T04:57:22.736Z,12.90
2019-04-30T04:59:52.007Z,12.90
2019-04-30T05:02:39.814Z,12.90
2019-04-30T05:05:09.751Z,13.00
2019-04-30T05:07:39.982Z,12.90
2019-04-30T05:10:09.930Z,12.90
2019-04-30T05:12:39.789Z,13.00
2019-04-30T05:15:10.638Z,12.90
2019-04-30T05:17:40.029Z,12.90
2019-04-30T05:20:10.209Z,12.80
2019-04-30T05:22:39.625Z,12.70
2019-04-30T05:25:09.222Z,12.70
2019-04-30T05:27:39.218Z,12.80
2019-04-30T05:30:12.205Z,12.80
2019-04-30T05:32:41.312Z,12.70
2019-04-30T05:35:10.774Z,12.80
2019-04-30T05:37:40.103Z,12.90
2019-04-30T05:40:09.841Z,12.70
2019-04-30T05:42:39.158Z,12.60
2019-04-30T05:45:09.624Z,12.80
2019-04-30T05:47:39.167Z,13.00
2019-04-30T05:50:09.189Z,13.10
2019-04-30T05:52:39.965Z,12.90
2019-04-30T05:55:09.339Z,12.90
2019-04-30T05:57:47.237Z,12.80
2019-04-30T06:00:10.337Z,12.80
2019-04-30T06:02:40.119Z,12.60
2019-04-30T06:05:10.233Z,12.70
2019-04-30T06:07:39.656Z,12.80
2019-04-30T06:10:29.418Z,12.90
2019-04-30T06:13:06.404Z,13.00
2019-04-30T06:15:40.398Z,12.90
2019-04-30T06:18:13.448Z,13.10
2019-04-30T06:20:40.726Z,13.10
2019-04-30T06:23:10.356Z,13.20
2019-04-30T06:25:55.314Z,13.20
2019-04-30T06:28:11.191Z,13.30
2019-04-30T06:30:40.931Z,13.00
2019-04-30T06:33:11.733Z,12.90
2019-04-30T06:35:41.286Z,13.10
2019-04-30T06:38:10.586Z,13.00
2019-04-30T06:40:39.946Z,12.80
2019-04-30T06:43:10.601Z,13.00
2019-04-30T06:45:59.491Z,13.00
2019-04-30T06:48:30.134Z,12.80
2019-04-30T06:50:59.542Z,13.00
2019-04-30T06:53:29.276Z,13.00
2019-04-30T06:55:59.095Z,13.00
2019-04-30T06:58:29.211Z,13.20
2019-04-30T07:00:59.624Z,13.40
2019-04-30T07:03:29.191Z,13.50
2019-04-30T07:05:58.755Z,13.60
2019-04-30T07:08:37.206Z,13.80
2019-04-30T07:11:20.613Z,13.70
2019-04-30T07:13:52.170Z,13.40
2019-04-30T07:16:21.916Z,13.30
2019-04-30T07:18:51.370Z,13.10
2019-04-30T07:21:20.658Z,12.80
2019-04-30T07:23:50.448Z,13.10
2019-04-30T07:26:24.508Z,13.30
2019-04-30T07:28:54.909Z,12.90
2019-04-30T07:31:21.851Z,12.20
2019-04-30T07:33:53.796Z,12.20
2019-04-30T07:36:22.272Z,12.30
2019-04-30T07:38:56.117Z,12.80
2019-04-30T07:41:22.676Z,13.20
2019-04-30T07:43:52.293Z,12.90
2019-04-30T07:46:21.674Z,12.80
2019-04-30T07:48:50.979Z,12.80
2019-04-30T07:51:21.626Z,13.10
2019-04-30T07:53:51.381Z,13.30
2019-04-30T07:56:27.989Z,13.00
2019-04-30T07:58:51.761Z,12.90
2019-04-30T08:01:21.072Z,13.10
2019-04-30T08:03:54.856Z,13.30
2019-04-30T08:06:24.767Z,13.60
2019-04-30T08:08:57.522Z,13.60
2019-04-30T08:11:26.478Z,14.00
2019-04-30T08:13:56.193Z,14.10
2019-04-30T08:16:25.816Z,13.80
2019-04-30T08:18:55.177Z,13.40
2019-04-30T08:21:24.632Z,13.30
2019-04-30T08:23:53.918Z,13.30
2019-04-30T08:26:23.604Z,13.40
2019-04-30T08:28:52.899Z,13.30
2019-04-30T08:31:22.201Z,13.00
2019-04-30T08:33:51.499Z,13.10
2019-04-30T08:36:20.821Z,13.30
2019-04-30T08:38:50.181Z,13.40
2019-04-30T08:41:19.539Z,13.80
2019-04-30T08:43:49.939Z,14.00
2019-04-30T08:46:19.530Z,14.00
2019-04-30T08:48:51.776Z,14.10
2019-04-30T08:51:20.207Z,14.40
2019-04-30T08:53:49.765Z,14.50
2019-04-30T08:56:21.911Z,14.50
2019-04-30T08:58:51.274Z,14.40
2019-04-30T09:01:20.574Z,14.10
2019-04-30T09:03:51.299Z,14.30
2019-04-30T09:06:22.524Z,14.20
2019-04-30T09:08:52.355Z,14.30
2019-04-30T09:11:27.332Z,14.40
2019-04-30T09:13:52.671Z,14.60
2019-04-30T09:16:22.061Z,14.80
2019-04-30T09:18:52.993Z,15.00
2019-04-30T09:21:22.288Z,14.60
2019-04-30T09:23:52.779Z,14.40
2019-04-30T09:26:22.434Z,14.80
2019-04-30T09:28:52.809Z,15.10
2019-04-30T09:31:22.123Z,15.30
2019-04-30T09:33:52.388Z,15.30
2019-04-30T09:36:21.698Z,15.40
2019-04-30T09:38:50.994Z,15.30
2019-04-30T09:41:20.331Z,15.80
2019-04-30T09:43:49.636Z,16.00
2019-04-30T09:46:26.305Z,15.80
2019-04-30T09:48:50.832Z,15.50
2019-04-30T09:51:23.794Z,15.40
2019-04-30T09:53:58.724Z,16.00
2019-04-30T09:56:22.417Z,16.40
2019-04-30T09:58:51.719Z,16.10
2019-04-30T10:01:22.127Z,16.40
2019-04-30T10:03:51.922Z,16.70
2019-04-30T10:06:21.667Z,16.60
2019-04-30T10:08:51.443Z,16.40
2019-04-30T10:11:28.120Z,16.00
2019-04-30T10:13:58.383Z,16.00
2019-04-30T10:16:44.350Z,16.70
2019-04-30T10:19:15.033Z,16.60
2019-04-30T10:21:44.487Z,16.50
2019-04-30T10:24:15.738Z,16.50
2019-04-30T10:26:44.774Z,16.30
2019-04-30T10:29:15.647Z,16.60
2019-04-30T10:31:45.009Z,17.10
2019-04-30T10:34:14.357Z,17.60
2019-04-30T10:36:43.747Z,17.20
2019-04-30T10:39:13.049Z,17.20
2019-04-30T10:41:42.402Z,17.30
2019-04-30T10:44:11.959Z,17.40
2019-04-30T10:46:41.258Z,17.70
2019-04-30T10:49:10.565Z,18.40
2019-04-30T10:52:01.148Z,18.70
2019-04-30T10:54:30.238Z,18.80
2019-04-30T10:56:59.593Z,18.80
2019-04-30T10:59:29.255Z,18.30
2019-04-30T11:01:59.176Z,19.00
2019-04-30T11:04:28.820Z,19.50
2019-04-30T11:07:00.152Z,19.90
2019-04-30T11:09:31.021Z,19.90
2019-04-30T11:12:03.051Z,20.20
2019-04-30T11:14:31.793Z,20.40
2019-04-30T11:17:01.397Z,20.40
2019-04-30T11:19:31.062Z,20.50
2019-04-30T11:22:00.770Z,20.80
2019-04-30T11:24:36.413Z,20.80
2019-04-30T11:27:02.053Z,20.10
2019-04-30T11:29:32.006Z,19.50
2019-04-30T11:32:03.262Z,19.60
2019-04-30T11:34:32.836Z,20.00
2019-04-30T11:37:02.122Z,20.50
2019-04-30T11:39:32.475Z,21.20
2019-04-30T11:42:01.929Z,20.80
2019-04-30T11:44:31.680Z,20.30
2019-04-30T11:47:16.280Z,19.70
2019-04-30T11:49:45.595Z,18.80
2019-04-30T11:52:14.903Z,19.50
2019-04-30T11:54:51.633Z,19.80
2019-04-30T11:57:15.286Z,20.00
2019-04-30T11:59:44.777Z,20.20
2019-04-30T12:02:16.450Z,20.00
2019-04-30T12:04:45.755Z,19.40
2019-04-30T12:07:16.761Z,20.00
2019-04-30T12:09:53.486Z,20.40
2019-04-30T12:12:23.439Z,21.00
2019-04-30T12:14:52.745Z,20.70
2019-04-30T12:17:22.023Z,20.50
2019-04-30T12:19:51.346Z,19.90
2019-04-30T12:22:20.628Z,20.30
2019-04-30T12:25:05.246Z,20.70
2019-04-30T12:27:32.943Z,20.10
2019-04-30T12:30:02.543Z,20.90
2019-04-30T12:32:32.149Z,21.70
2019-04-30T12:35:01.464Z,22.30
2019-04-30T12:37:30.826Z,22.40
2019-04-30T12:40:00.469Z,22.60
2019-04-30T12:42:29.761Z,22.60
2019-04-30T12:44:59.507Z,22.70
2019-04-30T12:47:30.586Z,21.60
2019-04-30T12:50:09.436Z,21.50
2019-04-30T12:52:46.362Z,22.00
2019-04-30T12:55:17.322Z,21.80
2019-04-30T12:57:58.257Z,21.80
2019-04-30T13:00:21.731Z,21.80
2019-04-30T13:02:51.056Z,22.00
2019-04-30T13:05:20.701Z,22.50
2019-04-30T13:07:51.170Z,22.30
2019-04-30T13:10:21.754Z,22.00
2019-04-30T13:12:52.248Z,22.00
2019-04-30T13:15:23.250Z,21.90
2019-04-30T13:17:52.556Z,22.30
2019-04-30T13:20:24.100Z,22.40
2019-04-30T13:22:53.313Z,22.50
2019-04-30T13:25:32.485Z,22.80
2019-04-30T13:28:07.333Z,23.20
2019-04-30T13:30:39.497Z,22.80
2019-04-30T13:33:16.146Z,22.60
2019-04-30T13:35:45.459Z,22.90
2019-04-30T13:38:19.539Z,22.90
2019-04-30T13:40:53.220Z,22.90
2019-04-30T13:43:40.767Z,23.00
2019-04-30T13:46:10.353Z,22.70
2019-04-30T13:48:39.747Z,22.30
2019-04-30T13:51:09.027Z,22.00
2019-04-30T13:53:39.515Z,22.10
2019-04-30T13:56:10.139Z,22.20
2019-04-30T13:58:39.507Z,22.50
2019-04-30T14:01:08.970Z,22.80
2019-04-30T14:03:39.934Z,23.00
2019-04-30T14:06:10.890Z,23.20
2019-04-30T14:08:41.814Z,22.90
2019-04-30T14:11:11.123Z,22.60
2019-04-30T14:13:40.466Z,22.70
2019-04-30T14:16:09.820Z,23.00
2019-04-30T14:18:39.306Z,22.90
2019-04-30T14:21:09.354Z,23.00
2019-04-30T14:23:39.658Z,23.40
2019-04-30T14:26:09.396Z,23.30
2019-04-30T14:28:39.193Z,22.60
2019-04-30T14:31:09.787Z,22.80
2019-04-30T14:33:40.117Z,22.60
2019-04-30T14:36:09.484Z,22.50
2019-04-30T14:38:40.689Z,21.90
2019-04-30T14:41:10.783Z,22.00
2019-04-30T14:43:50.496Z,22.10
2019-04-30T14:46:33.201Z,22.60
2019-04-30T14:49:23.694Z,22.40
2019-04-30T14:51:53.859Z,22.80
2019-04-30T14:54:41.250Z,22.70
2019-04-30T15:00:08.764Z,22.90
2019-04-30T15:02:43.062Z,22.50
2019-04-30T15:05:12.349Z,21.70
2019-04-30T15:07:42.730Z,21.80
2019-04-30T15:10:12.378Z,22.00
2019-04-30T15:12:41.703Z,22.20
2019-04-30T15:15:11.631Z,22.40
2019-04-30T15:17:41.244Z,22.40
2019-04-30T15:20:11.258Z,22.40
2019-04-30T15:22:42.207Z,22.30
2019-04-30T15:25:11.792Z,22.20
2019-04-30T15:27:45.307Z,22.00
2019-04-30T15:30:13.023Z,22.20
2019-04-30T15:32:43.967Z,22.40
2019-04-30T15:35:13.397Z,22.70
2019-04-30T15:37:44.415Z,22.80
2019-04-30T15:40:15.151Z,22.70
2019-04-30T15:42:46.424Z,22.50
2019-04-30T15:45:19.070Z,22.60
2019-04-30T15:47:48.688Z,22.50
2019-04-30T15:50:19.549Z,22.40
2019-04-30T15:52:48.991Z,22.30
2019-04-30T15:55:18.972Z,22.30
2019-04-30T15:57:59.476Z,22.50
2019-04-30T16:00:31.366Z,22.20
2019-04-30T16:03:02.809Z,22.10
2019-04-30T16:05:33.752Z,21.60
2019-04-30T16:08:08.888Z,21.90
2019-04-30T16:10:40.039Z,22.10
2019-04-30T16:13:11.973Z,22.10
2019-04-30T16:15:41.386Z,22.10
2019-04-30T16:18:11.142Z,22.00
2019-04-30T16:20:40.478Z,21.70
2019-04-30T16:23:10.804Z,21.50
2019-04-30T16:25:40.096Z,21.60
2019-04-30T16:28:10.137Z,21.40
2019-04-30T16:30:39.534Z,21.20
2019-04-30T16:33:09.513Z,20.90
2019-04-30T16:35:39.968Z,21.00
2019-04-30T16:38:09.353Z,21.10
2019-04-30T16:40:38.707Z,21.30
2019-04-30T16:43:08.054Z,21.40
2019-04-30T16:45:38.959Z,21.50
2019-04-30T16:48:10.092Z,21.60
2019-04-30T16:50:39.651Z,21.20
2019-04-30T16:53:08.995Z,21.30
2019-04-30T16:55:38.333Z,21.10
2019-04-30T16:58:08.959Z,20.90
2019-04-30T17:00:39.268Z,20.90
2019-04-30T17:03:13.315Z,20.90
2019-04-30T17:05:44.354Z,20.80
2019-04-30T17:08:32.817Z,20.60
2019-04-30T17:11:03.954Z,20.40
2019-04-30T17:13:53.227Z,20.40
2019-04-30T17:16:23.800Z,20.40
2019-04-30T17:18:54.057Z,20.30
2019-04-30T17:21:23.355Z,20.30
2019-04-30T17:23:52.734Z,20.30
2019-04-30T17:26:22.022Z,20.20
2019-04-30T17:28:51.387Z,20.30
2019-04-30T17:31:20.754Z,20.30
2019-04-30T17:33:50.069Z,20.10
2019-04-30T17:36:19.462Z,19.80
2019-04-30T17:38:48.783Z,19.80
2019-04-30T17:41:18.233Z,19.80
2019-04-30T17:43:49.462Z,19.60
2019-04-30T17:46:20.253Z,19.50
2019-04-30T17:48:49.723Z,19.30
2019-04-30T17:51:22.724Z,19.30
2019-04-30T17:54:09.766Z,19.20
2019-04-30T17:56:39.371Z,19.10
2019-04-30T17:59:08.918Z,19.10
2019-04-30T18:01:40.110Z,19.10
2019-04-30T18:04:09.999Z,19.00
2019-04-30T18:06:39.383Z,18.90
2019-04-30T18:09:10.777Z,18.70
2019-04-30T18:11:39.978Z,18.50
2019-04-30T18:14:11.247Z,18.40
2019-04-30T18:16:40.645Z,18.30
2019-04-30T18:19:28.660Z,18.20
2019-04-30T18:21:59.926Z,18.10
2019-04-30T18:24:33.841Z,18.00
2019-04-30T18:27:14.085Z,17.90
2019-04-30T18:29:44.347Z,17.90
2019-04-30T18:32:13.918Z,17.70
2019-04-30T18:34:43.227Z,17.50
2019-04-30T18:37:14.117Z,17.30
2019-04-30T18:39:43.846Z,17.10
2019-04-30T18:42:13.150Z,17.20
2019-04-30T18:44:42.549Z,17.20
2019-04-30T18:47:11.909Z,17.10
2019-04-30T18:49:41.369Z,17.00
2019-04-30T18:52:10.668Z,17.00
2019-04-30T18:54:40.114Z,16.90
2019-04-30T18:57:09.421Z,16.80
2019-04-30T18:59:39.700Z,16.60
2019-04-30T19:02:10.657Z,16.60
2019-04-30T19:04:40.892Z,16.40
2019-04-30T19:07:18.235Z,16.30
2019-04-30T19:09:51.939Z,16.20
2019-04-30T19:12:40.681Z,16.10
2019-04-30T19:15:17.551Z,15.90
2019-04-30T19:18:04.733Z,15.80
2019-04-30T19:20:38.675Z,15.70
2019-04-30T19:23:09.938Z,15.50
2019-04-30T19:25:39.063Z,15.40
2019-04-30T19:28:12.204Z,15.40
2019-04-30T19:30:39.788Z,15.40
2019-04-30T19:33:09.090Z,15.40
2019-04-30T19:35:38.382Z,15.40
2019-04-30T19:38:09.193Z,15.50
2019-04-30T19:40:39.163Z,15.50
2019-04-30T19:43:08.600Z,15.40
2019-04-30T19:45:37.959Z,15.20
2019-04-30T19:48:09.047Z,15.20
2019-04-30T19:50:38.371Z,15.20
2019-04-30T19:53:08.791Z,15.20
2019-04-30T19:55:39.378Z,15.20
2019-04-30T19:58:10.788Z,15.20
2019-04-30T20:00:40.991Z,15.10
2019-04-30T20:03:10.306Z,15.10
2019-04-30T20:05:39.600Z,15.00
2019-04-30T20:08:11.034Z,15.00
2019-04-30T20:10:39.994Z,15.00
2019-04-30T20:13:10.840Z,14.70
2019-04-30T20:15:40.440Z,14.40
2019-04-30T20:18:09.791Z,14.30
2019-04-30T20:20:40.863Z,14.30
2019-04-30T20:23:10.164Z,14.30
2019-04-30T20:25:39.496Z,14.30
2019-04-30T20:28:08.823Z,14.20
2019-04-30T20:30:39.299Z,14.20
2019-04-30T20:33:09.133Z,14.10
2019-04-30T20:35:38.993Z,14.00
2019-04-30T20:38:16.944Z,13.90
2019-04-30T20:40:59.632Z,13.90
2019-04-30T20:43:20.020Z,13.80
2019-04-30T20:45:49.336Z,13.80
2019-04-30T20:48:18.876Z,13.80
2019-04-30T20:50:48.321Z,13.90
2019-04-30T20:53:19.795Z,13.70
2019-04-30T20:55:49.606Z,13.60
2019-04-30T20:58:18.994Z,13.50
2019-04-30T21:01:00.500Z,13.50
2019-04-30T21:03:19.713Z,13.50
2019-04-30T21:05:49.012Z,13.50
2019-04-30T21:08:18.331Z,13.60
2019-04-30T21:10:49.433Z,13.60
2019-04-30T21:13:19.389Z,13.50
2019-04-30T21:15:49.588Z,13.30
2019-04-30T21:18:19.527Z,13.20
2019-04-30T21:20:49.646Z,13.10
2019-04-30T21:23:19.572Z,13.10
2019-04-30T21:25:50.076Z,13.00
2019-04-30T21:28:19.837Z,12.80
2019-04-30T21:30:49.246Z,12.80
2019-04-30T21:33:25.923Z,12.80
2019-04-30T21:35:59.662Z,12.70
2019-04-30T21:38:29.300Z,12.50
2019-04-30T21:41:01.142Z,12.50
2019-04-30T21:43:29.786Z,12.40
2019-04-30T21:45:59.459Z,12.50
2019-04-30T21:48:28.872Z,12.60
2019-04-30T21:50:59.429Z,12.70
2019-04-30T21:53:29.467Z,12.70
2019-04-30T21:55:59.154Z,12.70
2019-04-30T21:58:29.181Z,12.70
2019-04-30T22:01:06.280Z,12.80
2019-04-30T22:03:39.415Z,12.60
2019-04-30T22:06:10.633Z,12.50
2019-04-30T22:08:39.728Z,12.40
2019-04-30T22:11:09.728Z,12.40
2019-04-30T22:13:43.168Z,12.50
2019-04-30T22:16:14.925Z,12.50
2019-04-30T22:18:44.287Z,12.50
2019-04-30T22:21:13.606Z,12.50
2019-04-30T22:23:42.908Z,12.40
2019-04-30T22:26:12.206Z,12.40
2019-04-30T22:28:41.842Z,12.20
2019-04-30T22:31:11.176Z,12.10
2019-04-30T22:33:40.539Z,12.10
2019-04-30T22:36:11.502Z,12.20
2019-04-30T22:38:42.467Z,12.10
2019-04-30T22:41:12.747Z,12.10
2019-04-30T22:43:42.045Z,11.90
2019-04-30T22:46:15.818Z,11.90
2019-04-30T22:48:45.110Z,11.80
2019-04-30T22:51:14.434Z,11.80
2019-04-30T22:53:43.808Z,11.80
2019-04-30T22:56:13.117Z,11.70
2019-04-30T22:58:42.414Z,11.50
2019-04-30T23:01:29.879Z,11.40
2019-04-30T23:04:03.607Z,11.40
2019-04-30T23:06:33.195Z,11.50
2019-04-30T23:09:02.494Z,11.60
2019-04-30T23:11:33.447Z,11.50
2019-04-30T23:14:02.878Z,11.60
2019-04-30T23:16:32.195Z,11.60
2019-04-30T23:19:01.581Z,11.60
2019-04-30T23:21:30.878Z,11.50
2019-04-30T23:24:00.190Z,11.50
2019-04-30T23:26:29.862Z,11.50
2019-04-30T23:28:59.191Z,11.40
2019-04-30T23:31:28.553Z,11.50
2019-04-30T23:33:57.896Z,11.60
2019-04-30T23:36:27.213Z,11.60
2019-04-30T23:38:56.519Z,11.60
2019-04-30T23:41:26.794Z,11.50
2019-04-30T23:46:52.178Z,11.60
2019-04-30T23:49:21.818Z,11.40
2019-04-30T23:51:51.207Z,11.30
2019-04-30T23:54:20.639Z,11.30
2019-04-30T23:56:51.027Z,11.20
2019-04-30T23:59:20.370Z,11.20
